Time;durP1;ratioP1;P1;durP2;ratioP2;P2;SDS_P1;SDS_P2;PMS_P1;PMS_P2;Temp;Humidity;BMP_temperature;BMP_pressure;BME280_temperature;BME280_humidity;BME280_pressure;Samples;Min_cycle;Max_cycle;Signal;HPM_P1;HPM_P2
2022/10/10 00:00:50;;;;;;;10.70;1.43;;;;;;;10.28;89.62;101640.22;5071166;28;20534;-70
2022/10/10 00:03:18;;;;;;;6.60;1.80;;;;;;;10.30;89.76;101632.63;5073175;28;20445;-69
2022/10/10 00:05:45;;;;;;;5.50;1.43;;;;;;;10.25;88.50;101634.53;5072318;28;20515;-69
2022/10/10 00:08:13;;;;;;;5.50;1.60;;;;;;;10.17;87.40;101629.63;5073022;28;20491;-69
2022/10/10 00:10:39;;;;;;;7.00;1.50;;;;;;;10.04;86.51;101626.41;5071003;28;20496;-69
2022/10/10 00:13:06;;;;;;;5.60;1.50;;;;;;;10.01;86.00;101629.66;5072133;28;20465;-69
2022/10/10 00:15:33;;;;;;;4.00;1.50;;;;;;;10.00;86.95;101625.31;5072289;28;20461;-69
2022/10/10 00:17:59;;;;;;;4.60;1.70;;;;;;;10.01;88.37;101626.16;5072656;28;21005;-69
2022/10/10 00:20:25;;;;;;;5.00;1.73;;;;;;;10.00;89.17;101616.38;5072043;28;20477;-70
2022/10/10 00:22:52;;;;;;;4.10;1.73;;;;;;;9.94;90.37;101617.47;5072850;28;20449;-70
2022/10/10 00:25:20;;;;;;;4.90;1.60;;;;;;;9.90;90.80;101611.78;5071965;28;20465;-69
2022/10/10 00:27:46;;;;;;;6.00;1.60;;;;;;;9.89;91.35;101606.66;5072871;28;21065;-69
2022/10/10 00:30:13;;;;;;;5.43;1.40;;;;;;;9.93;91.24;101607.75;5070807;28;20493;-69
2022/10/10 00:32:40;;;;;;;5.10;1.70;;;;;;;9.97;91.13;101600.72;5052716;28;20806;-70
2022/10/10 00:35:07;;;;;;;4.53;1.50;;;;;;;9.95;91.21;101598.25;5068951;28;20452;-69
2022/10/10 00:37:33;;;;;;;5.40;1.57;;;;;;;9.97;90.90;101601.50;5071684;28;20485;-70
2022/10/10 00:40:00;;;;;;;7.33;2.23;;;;;;;9.99;89.49;101601.22;5075290;28;20464;-70
2022/10/10 00:42:28;;;;;;;3.50;1.13;;;;;;;9.97;88.28;101598.81;5075949;28;20429;-70
2022/10/10 00:45:21;;;;;;;6.47;1.60;;;;;;;9.83;87.72;101595.84;5076148;28;20946;-70
2022/10/10 00:47:49;;;;;;;5.77;1.67;;;;;;;9.78;87.56;101595.00;5075715;28;20461;-70
2022/10/10 00:50:17;;;;;;;4.60;1.67;;;;;;;9.73;87.33;101592.31;5074099;28;22534;-70
2022/10/10 00:52:43;;;;;;;4.50;1.63;;;;;;;9.72;89.37;101588.78;5076217;28;20452;-70
2022/10/10 00:55:11;;;;;;;4.63;1.60;;;;;;;9.72;90.46;101582.56;5075076;28;20445;-72
2022/10/10 00:57:39;;;;;;;5.63;1.70;;;;;;;9.75;90.93;101582.03;5076179;28;20437;-71
2022/10/10 01:00:07;;;;;;;5.97;1.40;;;;;;;9.77;90.84;101580.66;5075184;28;20457;-70
2022/10/10 01:02:33;;;;;;;5.07;1.87;;;;;;;9.75;91.42;101579.34;5075634;28;20453;-71
2022/10/10 01:05:00;;;;;;;7.07;2.73;;;;;;;9.78;91.11;101573.34;5075651;28;20861;-71
2022/10/10 01:07:30;;;;;;;4.60;1.60;;;;;;;9.71;92.05;101578.25;5075724;28;20457;-71
2022/10/10 01:09:59;;;;;;;3.90;1.70;;;;;;;9.75;91.88;101574.72;5076071;28;20519;-71
2022/10/10 01:12:37;;;;;;;5.47;2.30;;;;;;;9.81;91.46;101565.53;5074163;28;20951;-70
2022/10/10 01:15:16;;;;;;;4.50;1.70;;;;;;;9.79;91.43;101573.09;5073614;28;20469;-71
2022/10/10 01:17:48;;;;;;;4.40;1.53;;;;;;;9.83;91.33;101560.66;5075555;28;20422;-71
2022/10/10 01:20:39;;;;;;;4.87;2.03;;;;;;;9.84;91.21;101558.75;5074682;28;20478;-70
2022/10/10 01:23:39;;;;;;;3.90;1.60;;;;;;;9.82;91.25;101552.78;5073847;28;20445;-70
2022/10/10 01:26:29;;;;;;;4.57;1.87;;;;;;;9.83;91.21;101552.53;5074976;28;20473;-70
2022/10/10 01:29:04;;;;;;;7.60;1.63;;;;;;;9.81;91.14;101546.56;5075728;28;20414;-71
2022/10/10 01:31:34;;;;;;;9.30;1.90;;;;;;;9.75;91.30;101544.16;5073711;28;20488;-71
2022/10/10 01:34:08;;;;;;;8.00;2.07;;;;;;;9.75;90.49;101549.56;5075951;28;20426;-71
2022/10/10 01:36:42;;;;;;;4.80;1.70;;;;;;;9.68;88.76;101540.91;5075111;28;20548;-71
2022/10/10 01:39:16;;;;;;;8.00;1.77;;;;;;;9.62;87.82;101548.22;5075601;28;20429;-71
2022/10/10 01:41:50;;;;;;;4.53;1.80;;;;;;;9.63;88.01;101539.00;5072539;28;20496;-71
2022/10/10 01:44:18;;;;;;;4.90;1.30;;;;;;;9.50;90.28;101528.75;5075529;28;20420;-70
2022/10/10 01:46:44;;;;;;;5.13;1.53;;;;;;;9.52;88.73;101530.09;5074458;28;20465;-71
2022/10/10 01:49:11;;;;;;;5.07;1.93;;;;;;;9.50;90.24;101537.66;5074901;28;20499;-71
2022/10/10 01:51:56;;;;;;;9.20;1.90;;;;;;;9.52;90.43;101529.28;5074052;28;20492;-71
2022/10/10 01:54:41;;;;;;;5.07;1.67;;;;;;;9.57;90.98;101523.88;5075189;28;20490;-71
2022/10/10 01:57:18;;;;;;;4.80;1.90;;;;;;;9.58;91.23;101522.78;5074110;28;20511;-71
2022/10/10 01:59:58;;;;;;;4.00;1.50;;;;;;;9.56;90.65;101527.66;5074793;28;20461;-71
2022/10/10 02:02:37;;;;;;;4.00;1.33;;;;;;;9.63;90.19;101525.50;5073356;28;20453;-71
2022/10/10 02:05:10;;;;;;;5.37;1.77;;;;;;;9.68;90.09;101522.78;5075059;28;20550;-69
2022/10/10 02:07:43;;;;;;;4.97;1.50;;;;;;;9.64;90.14;101524.41;5074424;28;20515;-71
2022/10/10 02:10:13;;;;;;;6.77;1.70;;;;;;;9.65;90.08;101519.81;5074794;28;20496;-70
2022/10/10 02:12:40;;;;;;;5.97;1.80;;;;;;;9.73;90.12;101513.84;5073789;28;20522;-70
2022/10/10 02:15:13;;;;;;;4.90;1.57;;;;;;;9.74;90.16;101516.31;5074791;28;20445;-70
2022/10/10 02:17:42;;;;;;;11.03;2.70;;;;;;;9.71;90.10;101508.72;5074454;28;20460;-70
2022/10/10 02:20:12;;;;;;;3.93;1.50;;;;;;;9.69;89.83;101513.56;5074300;28;21000;-69
2022/10/10 02:22:41;;;;;;;4.50;1.30;;;;;;;9.64;90.25;101508.16;5073191;28;20887;-70
2022/10/10 02:25:08;;;;;;;4.93;1.43;;;;;;;9.63;90.62;101498.44;5074552;28;20498;-69
2022/10/10 02:27:40;;;;;;;3.40;1.23;;;;;;;9.54;88.04;101491.97;5073041;28;20457;-70
2022/10/10 02:30:09;;;;;;;3.63;1.07;;;;;;;9.49;89.19;101492.78;5074324;28;20519;-69
2022/10/10 02:32:41;;;;;;;6.70;2.43;;;;;;;9.46;89.82;101495.19;5072678;28;20465;-70
2022/10/10 02:35:12;;;;;;;5.10;1.87;;;;;;;9.42;89.85;101488.72;5074402;28;20418;-70
2022/10/10 02:37:41;;;;;;;6.77;2.07;;;;;;;9.39;89.47;101486.56;5073673;28;20449;-70
2022/10/10 02:40:10;;;;;;;7.10;2.30;;;;;;;9.40;89.91;101478.19;5073615;28;20905;-70
2022/10/10 02:42:38;;;;;;;4.73;1.50;;;;;;;9.39;89.89;101478.47;5072370;28;20456;-70
2022/10/10 02:45:06;;;;;;;7.30;1.63;;;;;;;9.33;90.74;101477.63;5073819;28;20852;-69
2022/10/10 02:47:33;;;;;;;6.00;1.60;;;;;;;9.40;90.78;101477.38;5073418;28;20981;-69
2022/10/10 02:50:00;;;;;;;11.03;2.00;;;;;;;9.42;91.08;101472.50;5073888;28;20446;-70
2022/10/10 02:52:26;;;;;;;8.00;1.73;;;;;;;9.41;91.23;101470.88;5071780;28;20460;-70
2022/10/10 02:54:53;;;;;;;5.33;1.80;;;;;;;9.45;90.88;101463.84;5073925;28;20441;-69
2022/10/10 02:57:19;;;;;;;3.77;1.10;;;;;;;9.45;90.85;101472.75;5073315;28;20534;-70
2022/10/10 02:59:45;;;;;;;6.40;1.80;;;;;;;9.46;90.84;101465.47;5073329;28;20458;-69
2022/10/10 03:02:12;;;;;;;8.50;1.40;;;;;;;9.42;90.46;101456.25;5073104;28;20459;-70
2022/10/10 03:04:40;;;;;;;11.10;2.20;;;;;;;9.37;91.26;101456.28;5067065;28;20462;-71
2022/10/10 03:07:07;;;;;;;3.83;1.40;;;;;;;9.31;91.38;101453.56;5059412;28;20954;-70
2022/10/10 03:09:34;;;;;;;7.43;1.77;;;;;;;9.31;91.69;101455.47;5073398;28;20536;-70
2022/10/10 03:12:00;;;;;;;5.20;1.50;;;;;;;9.33;91.76;101443.28;5072752;28;20492;-70
2022/10/10 03:14:27;;;;;;;5.30;1.40;;;;;;;9.35;91.45;101438.44;5073694;28;20452;-69
2022/10/10 03:16:53;;;;;;;12.10;1.93;;;;;;;9.37;91.69;101435.44;5071906;28;20508;-70
2022/10/10 03:19:19;;;;;;;5.53;1.53;;;;;;;9.34;92.16;101423.31;5073555;28;20446;-69
2022/10/10 03:21:47;;;;;;;5.73;1.50;;;;;;;9.32;91.70;101433.56;5072620;28;20485;-70
2022/10/10 03:24:14;;;;;;;5.83;1.30;;;;;;;9.34;91.26;101442.22;5073348;28;20885;-69
2022/10/10 03:26:40;;;;;;;6.17;1.43;;;;;;;9.21;90.83;101425.72;5071713;28;20440;-71
2022/10/10 03:29:07;;;;;;;4.80;1.53;;;;;;;9.19;89.79;101428.69;5073536;28;20461;-71
2022/10/10 03:31:33;;;;;;;4.67;1.60;;;;;;;9.11;90.49;101426.53;5072374;28;20886;-69
2022/10/10 03:34:00;;;;;;;4.27;1.50;;;;;;;9.13;90.74;101418.19;5073358;28;20449;-71
2022/10/10 03:36:27;;;;;;;6.70;2.27;;;;;;;9.01;90.46;101418.44;5073440;28;20437;-70
2022/10/10 03:38:55;;;;;;;5.90;1.70;;;;;;;9.00;91.61;101419.53;5071293;28;20469;-70
2022/10/10 03:41:21;;;;;;;8.77;2.53;;;;;;;8.99;92.21;101407.91;5072890;28;20525;-70
2022/10/10 03:43:47;;;;;;;6.70;1.53;;;;;;;8.98;93.08;101414.38;5070920;28;20469;-69
2022/10/10 03:46:14;;;;;;;4.23;1.33;;;;;;;9.04;92.82;101407.09;5073053;28;20949;-70
2022/10/10 03:48:40;;;;;;;6.03;2.00;;;;;;;9.02;92.91;101409.25;5072282;28;20547;-69
2022/10/10 03:51:07;;;;;;;4.03;1.50;;;;;;;9.06;92.71;101396.81;5072763;28;20485;-70
2022/10/10 03:53:33;;;;;;;4.20;1.60;;;;;;;9.06;92.82;101396.81;5072696;28;20453;-70
2022/10/10 03:56:01;;;;;;;12.10;1.87;;;;;;;9.04;92.91;101394.38;5071307;28;20518;-70
2022/10/10 03:58:27;;;;;;;5.00;2.00;;;;;;;9.08;93.13;101389.25;5072664;28;20494;-70
2022/10/10 04:00:55;;;;;;;4.80;2.23;;;;;;;9.07;92.81;101387.63;5073037;28;20460;-70
2022/10/10 04:03:21;;;;;;;4.17;1.73;;;;;;;9.04;92.76;101388.19;5072753;28;20429;-70
2022/10/10 04:05:48;;;;;;;4.13;1.50;;;;;;;9.07;92.89;101385.75;5071058;28;20457;-70
2022/10/10 04:08:15;;;;;;;9.50;2.30;;;;;;;9.05;92.91;101379.78;5072802;28;20495;-71
2022/10/10 04:10:41;;;;;;;4.10;1.67;;;;;;;9.03;92.43;101376.56;5052807;28;20462;-70
2022/10/10 04:13:09;;;;;;;4.67;2.37;;;;;;;9.00;92.88;101377.09;5055745;28;20460;-69
2022/10/10 04:15:36;;;;;;;8.00;2.30;;;;;;;9.01;92.57;101367.09;5074143;28;20465;-69
2022/10/10 04:18:02;;;;;;;4.30;1.40;;;;;;;9.01;93.09;101367.09;5076969;28;20503;-69
2022/10/10 04:20:29;;;;;;;6.67;1.47;;;;;;;9.02;92.25;101363.31;5076096;28;20481;-70
2022/10/10 04:22:55;;;;;;;4.83;1.53;;;;;;;8.97;91.25;101356.00;5076886;28;20449;-69
2022/10/10 04:25:22;;;;;;;3.93;1.60;;;;;;;9.02;91.57;101355.19;5076561;28;20457;-69
2022/10/10 04:27:48;;;;;;;6.90;1.80;;;;;;;8.97;90.42;101349.81;5075015;28;20465;-68
2022/10/10 04:30:16;;;;;;;5.23;1.73;;;;;;;8.88;90.14;101343.31;5076750;28;20879;-69
2022/10/10 04:32:43;;;;;;;4.77;2.00;;;;;;;8.87;89.26;101344.41;5076006;28;20496;-69
2022/10/10 04:35:09;;;;;;;4.60;1.67;;;;;;;8.86;90.30;101342.78;5076660;28;20495;-69
2022/10/10 04:37:36;;;;;;;5.67;1.70;;;;;;;8.82;91.96;101332.53;5075578;28;20468;-69
2022/10/10 04:40:02;;;;;;;5.33;1.37;;;;;;;8.78;93.53;101333.34;5076340;28;20449;-69
2022/10/10 04:42:29;;;;;;;4.10;1.70;;;;;;;8.79;93.08;101322.25;5074593;28;20946;-72
2022/10/10 04:44:55;;;;;;;14.43;2.23;;;;;;;8.82;93.35;101319.00;5075356;28;20464;-71
2022/10/10 04:47:23;;;;;;;6.00;1.60;;;;;;;8.84;93.41;101319.53;5075883;28;20441;-69
2022/10/10 04:49:50;;;;;;;6.43;2.47;;;;;;;8.87;93.42;101315.50;5072473;28;20464;-68
2022/10/10 04:52:16;;;;;;;5.73;1.90;;;;;;;8.83;93.58;101312.53;5076284;28;20484;-70
2022/10/10 04:54:43;;;;;;;4.10;1.60;;;;;;;8.81;93.26;101314.69;5074376;28;20884;-70
2022/10/10 04:57:09;;;;;;;12.53;2.20;;;;;;;8.77;93.44;101310.09;5076169;28;20464;-70
2022/10/10 04:59:36;;;;;;;5.47;1.90;;;;;;;8.72;94.36;101294.72;5075107;28;20824;-70
2022/10/10 05:02:02;;;;;;;5.30;1.77;;;;;;;8.76;94.36;101284.97;5075134;28;21027;-70
2022/10/10 05:04:30;;;;;;;8.63;2.20;;;;;;;8.78;94.47;101287.41;5076282;28;20469;-70
2022/10/10 05:06:57;;;;;;;5.00;1.83;;;;;;;8.82;94.21;101283.09;5075294;28;20468;-70
2022/10/10 05:09:23;;;;;;;11.60;2.23;;;;;;;8.78;94.38;101277.41;5074221;28;20468;-69
2022/10/10 05:11:50;;;;;;;6.00;1.50;;;;;;;8.75;94.07;101277.94;5075786;28;20480;-69
2022/10/10 05:14:16;;;;;;;5.23;1.60;;;;;;;8.73;92.92;101274.72;5073239;28;20878;-69
2022/10/10 05:16:43;;;;;;;4.70;1.90;;;;;;;8.69;92.01;101279.03;5075930;28;20453;-70
2022/10/10 05:19:09;;;;;;;5.80;2.20;;;;;;;8.74;91.90;101281.75;5073556;28;20957;-70
2022/10/10 05:21:37;;;;;;;8.30;1.90;;;;;;;8.71;90.97;101286.88;5075799;28;20518;-69
2022/10/10 05:24:03;;;;;;;4.73;2.00;;;;;;;8.62;90.37;101281.19;5072620;28;20485;-70
2022/10/10 05:26:30;;;;;;;4.87;1.77;;;;;;;8.55;89.46;101277.97;5075534;28;20453;-69
2022/10/10 05:28:57;;;;;;;4.90;1.90;;;;;;;8.48;91.04;101282.81;5071759;28;20462;-70
2022/10/10 05:31:23;;;;;;;7.70;1.70;;;;;;;8.52;92.14;101281.22;5075455;28;20496;-69
2022/10/10 05:33:50;;;;;;;6.30;2.53;;;;;;;8.55;93.26;101288.78;5075695;28;20441;-69
2022/10/10 05:36:16;;;;;;;5.97;2.20;;;;;;;8.62;93.49;101288.50;5075633;28;20442;-69
2022/10/10 05:38:44;;;;;;;8.97;2.70;;;;;;;8.65;93.77;101285.25;5075485;28;20453;-69
2022/10/10 05:41:11;;;;;;;10.10;1.97;;;;;;;8.63;94.04;101284.69;5092109;22;20486;-68
2022/10/10 05:43:38;;;;;;;5.57;1.80;;;;;;;8.66;93.79;101282.28;5055026;28;20525;-69
2022/10/10 05:46:05;;;;;;;6.17;2.47;;;;;;;8.65;93.80;101279.84;5055377;28;20443;-68
2022/10/10 05:48:31;;;;;;;8.07;2.50;;;;;;;8.68;94.24;101272.03;5054854;28;20441;-69
2022/10/10 05:51:00;;;;;;;8.30;1.87;;;;;;;8.76;93.83;101273.34;5054961;28;20516;-70
2022/10/10 05:53:28;;;;;;;5.10;1.87;;;;;;;8.78;93.84;101276.59;5055121;28;20442;-69
2022/10/10 05:55:56;;;;;;;8.33;3.40;;;;;;;8.78;92.70;101280.13;5055146;28;20441;-72
2022/10/10 05:58:22;;;;;;;5.70;1.90;;;;;;;8.75;93.18;101277.94;5055070;28;20439;-70
2022/10/10 06:00:49;;;;;;;5.80;2.07;;;;;;;8.74;92.40;101270.94;5055028;28;20463;-69
2022/10/10 06:03:16;;;;;;;7.03;2.53;;;;;;;8.73;91.75;101263.91;5054713;28;20935;-68
2022/10/10 06:05:44;;;;;;;8.63;2.93;;;;;;;8.74;90.31;101267.44;5054914;28;20529;-68
2022/10/10 06:08:11;;;;;;;8.53;2.60;;;;;;;8.65;90.52;101261.75;5054696;28;20446;-68
2022/10/10 06:10:39;;;;;;;5.70;2.63;;;;;;;8.65;90.73;101267.16;5054436;28;21036;-68
2022/10/10 06:13:06;;;;;;;9.43;2.27;;;;;;;8.55;90.85;101256.38;5054771;28;20490;-68
2022/10/10 06:15:33;;;;;;;15.23;2.60;;;;;;;8.55;90.67;101262.59;5054441;28;20958;-68
2022/10/10 06:17:59;;;;;;;10.33;2.23;;;;;;;8.60;91.14;101264.47;5054591;28;20454;-68
2022/10/10 06:20:26;;;;;;;5.60;2.33;;;;;;;8.64;91.63;101257.44;5054571;28;20446;-68
2022/10/10 06:22:52;;;;;;;6.10;2.43;;;;;;;8.71;91.92;101267.97;5054581;28;20434;-68
2022/10/10 06:25:19;;;;;;;5.03;2.20;;;;;;;8.71;92.00;101276.06;5054609;28;20458;-69
2022/10/10 06:27:45;;;;;;;4.43;1.87;;;;;;;8.72;91.98;101261.47;5054196;28;20937;-68
2022/10/10 06:30:13;;;;;;;4.50;1.87;;;;;;;8.75;92.17;101260.94;5054465;28;20441;-68
2022/10/10 06:32:39;;;;;;;5.00;2.27;;;;;;;8.74;92.70;101267.44;5053940;28;21013;-68
2022/10/10 06:35:07;;;;;;;9.03;2.70;;;;;;;8.77;92.76;101270.41;5054370;28;20441;-68
2022/10/10 06:37:34;;;;;;;8.33;2.17;;;;;;;8.84;92.46;101267.41;5054554;28;20442;-68
2022/10/10 06:40:00;;;;;;;6.27;1.90;;;;;;;8.87;92.35;101266.06;5054343;28;20438;-68
2022/10/10 06:42:26;;;;;;;7.63;2.00;;;;;;;8.92;92.64;101271.47;5053848;28;20470;-69
2022/10/10 06:44:53;;;;;;;7.30;2.57;;;;;;;9.02;92.13;101271.44;5053894;28;20947;-69
2022/10/10 06:47:21;;;;;;;7.20;2.37;;;;;;;9.03;91.50;101256.81;5054122;28;20446;-68
2022/10/10 06:49:47;;;;;;;6.80;2.33;;;;;;;9.05;89.99;101260.88;5054074;28;20495;-68
2022/10/10 06:52:14;;;;;;;5.83;2.50;;;;;;;9.02;89.43;101266.81;5053920;28;20839;-68
2022/10/10 06:54:41;;;;;;;6.20;2.40;;;;;;;9.00;89.08;101257.41;5053927;28;20442;-68
2022/10/10 06:57:07;;;;;;;6.97;2.10;;;;;;;9.02;89.36;101253.31;5053982;28;20438;-71
2022/10/10 06:59:34;;;;;;;9.03;3.17;;;;;;;9.11;90.04;101258.97;5053937;28;20442;-70
2022/10/10 07:02:00;;;;;;;7.13;2.33;;;;;;;9.16;90.78;101245.44;5053846;28;20481;-70
2022/10/10 07:04:28;;;;;;;4.87;2.20;;;;;;;9.25;89.96;101249.22;5053759;28;20457;-70
2022/10/10 07:06:54;;;;;;;6.43;2.17;;;;;;;9.27;89.49;101238.94;5053789;28;20438;-71
2022/10/10 07:09:21;;;;;;;5.53;2.13;;;;;;;9.39;89.55;101241.34;5053789;28;20821;-71
2022/10/10 07:11:47;;;;;;;11.33;3.00;;;;;;;9.44;89.48;101243.19;5053608;28;20481;-72
2022/10/10 07:14:13;;;;;;;4.77;1.73;;;;;;;9.52;89.15;101248.03;5053780;28;20507;-70
2022/10/10 07:16:40;;;;;;;10.00;2.53;;;;;;;9.60;87.85;101239.31;5053642;28;20507;-71
2022/10/10 07:19:06;;;;;;;5.57;2.10;;;;;;;9.64;87.59;101234.97;5053627;28;20450;-71
2022/10/10 07:21:34;;;;;;;5.70;2.43;;;;;;;9.75;87.37;101233.84;5053409;28;20459;-71
2022/10/10 07:24:00;;;;;;;4.63;1.80;;;;;;;9.84;86.81;101234.88;5053443;28;20500;-70
2022/10/10 07:26:29;;;;;;;6.93;2.00;;;;;;;9.91;86.59;101228.34;5053487;28;20450;-71
2022/10/10 07:28:56;;;;;;;4.90;1.93;;;;;;;9.97;85.90;101238.06;5053250;28;20481;-71
2022/10/10 07:31:23;;;;;;;6.13;2.67;;;;;;;10.01;84.88;101234.50;5053358;28;20461;-70
2022/10/10 07:33:50;;;;;;;6.07;2.20;;;;;;;10.08;84.22;101229.56;5053301;28;20893;-70
2022/10/10 07:36:17;;;;;;;4.90;2.17;;;;;;;10.06;83.40;101234.47;5053345;28;20535;-70
2022/10/10 07:38:45;;;;;;;8.57;2.00;;;;;;;10.03;83.17;101237.72;5053393;28;20442;-70
2022/10/10 07:41:13;;;;;;;4.70;1.80;;;;;;;10.06;83.42;101239.06;5053112;28;20474;-70
2022/10/10 07:43:40;;;;;;;5.50;2.07;;;;;;;10.14;84.31;101248.47;5053305;28;20445;-70
2022/10/10 07:46:14;;;;;;;6.30;2.07;;;;;;;10.21;84.25;101240.84;5052902;28;21005;-69
2022/10/10 07:48:41;;;;;;;7.20;1.83;;;;;;;10.28;83.76;101244.09;5052945;28;20426;-70
2022/10/10 07:51:07;;;;;;;9.30;2.10;;;;;;;10.32;83.75;101240.53;5052798;28;20976;-70
2022/10/10 07:53:34;;;;;;;6.53;2.33;;;;;;;10.42;83.36;101238.81;5053066;28;20912;-70
2022/10/10 07:56:04;;;;;;;6.17;2.30;;;;;;;10.52;83.26;101228.72;5053046;28;20442;-70
2022/10/10 07:58:30;;;;;;;4.67;2.07;;;;;;;10.59;83.35;101233.81;5053100;28;20450;-70
2022/10/10 08:01:02;;;;;;;5.57;1.83;;;;;;;10.65;81.88;101237.28;5052732;28;20466;-70
2022/10/10 08:03:28;;;;;;;16.13;1.70;;;;;;;10.62;81.11;101235.94;5053076;28;20431;-70
2022/10/10 08:05:54;;;;;;;4.83;1.80;;;;;;;10.65;81.23;101238.06;5053039;28;20445;-70
2022/10/10 08:08:21;;;;;;;5.37;2.17;;;;;;;10.66;81.61;101230.75;5053087;28;20489;-70
2022/10/10 08:10:47;;;;;;;5.90;1.83;;;;;;;10.74;82.15;101219.28;5052905;28;20469;-70
2022/10/10 08:13:15;;;;;;;6.60;2.27;;;;;;;10.84;81.86;101214.56;5052590;28;21057;-70
2022/10/10 08:15:41;;;;;;;5.20;1.80;;;;;;;10.90;82.66;101223.47;5052893;28;20499;-70
2022/10/10 08:18:08;;;;;;;4.50;1.80;;;;;;;10.99;81.17;101218.22;5052929;28;20446;-70
2022/10/10 08:20:34;;;;;;;4.83;1.50;;;;;;;11.06;81.91;101215.97;5052859;28;20446;-70
2022/10/10 08:23:01;;;;;;;4.47;2.20;;;;;;;11.11;79.99;101218.63;5052804;28;20441;-70
2022/10/10 08:25:27;;;;;;;5.70;1.97;;;;;;;11.19;79.32;101222.59;5052845;28;20446;-70
2022/10/10 08:27:53;;;;;;;5.33;1.80;;;;;;;11.24;79.17;101222.53;5052829;28;20442;-69
2022/10/10 08:30:21;;;;;;;5.60;2.00;;;;;;;11.24;78.89;101222.53;5052734;28;20450;-73
2022/10/10 08:32:48;;;;;;;5.47;1.67;;;;;;;11.28;79.56;101220.88;5052691;28;20485;-70
2022/10/10 08:35:14;;;;;;;5.50;2.23;;;;;;;11.39;78.25;101221.56;5052731;28;20457;-70
2022/10/10 08:37:41;;;;;;;6.73;2.10;;;;;;;11.45;77.81;101228.53;5049810;28;20474;-70
2022/10/10 08:40:10;;;;;;;6.30;1.50;;;;;;;11.49;78.07;101218.72;5050434;28;20462;-70
2022/10/10 08:42:42;;;;;;;5.67;2.00;;;;;;;11.60;77.81;101217.50;5051052;28;20512;-70
2022/10/10 08:45:13;;;;;;;5.80;2.03;;;;;;;11.70;77.64;101211.91;5051478;28;20489;-70
2022/10/10 08:47:46;;;;;;;10.80;2.77;;;;;;;11.77;76.79;101206.09;5038467;28;20839;-70
2022/10/10 08:50:18;;;;;;;6.20;2.33;;;;;;;11.89;77.36;101208.41;5046624;28;20436;-70
2022/10/10 08:52:50;;;;;;;5.33;2.20;;;;;;;11.97;77.75;101196.91;5051909;28;20489;-70
2022/10/10 08:55:21;;;;;;;4.60;1.77;;;;;;;12.03;75.76;101193.00;5052105;28;20454;-70
2022/10/10 08:57:51;;;;;;;6.67;1.93;;;;;;;12.04;77.58;101197.31;5052648;28;20418;-70
2022/10/10 09:00:21;;;;;;;9.00;2.70;;;;;;;12.16;75.26;101191.44;5053900;28;20976;-70
2022/10/10 09:02:51;;;;;;;7.43;2.60;;;;;;;12.23;74.95;101184.53;5055284;28;20784;-70
2022/10/10 09:05:21;;;;;;;13.23;2.40;;;;;;;12.32;74.79;101185.47;5053375;28;20449;-70
2022/10/10 09:08:10;;;;;;;3.87;1.33;;;;;;;12.42;75.60;101186.38;5056083;28;20449;-70
2022/10/10 09:10:44;;;;;;;4.53;2.00;;;;;;;12.55;74.97;101191.03;5055730;28;20820;-70
2022/10/10 09:13:23;;;;;;;4.90;1.60;;;;;;;12.66;73.68;101189.75;5055587;28;21046;-70
2022/10/10 09:15:55;;;;;;;6.13;1.50;;;;;;;12.76;73.59;101178.69;5055871;28;20430;-70
2022/10/10 09:18:38;;;;;;;5.30;1.77;;;;;;;12.85;73.16;101184.25;5055901;28;20427;-70
2022/10/10 09:21:13;;;;;;;4.90;1.60;;;;;;;13.02;72.14;101183.63;5055803;28;20462;-70
2022/10/10 09:23:44;;;;;;;6.17;2.50;;;;;;;13.20;70.92;101180.00;5055801;28;20422;-70
2022/10/10 09:26:12;;;;;;;5.37;1.83;;;;;;;13.34;70.28;101177.28;5055725;28;20431;-70
2022/10/10 09:28:45;;;;;;;5.50;1.60;;;;;;;13.48;70.81;101169.91;5055666;28;20438;-70
2022/10/10 09:31:17;;;;;;;4.60;1.83;;;;;;;13.63;70.69;101168.75;5055574;28;20471;-70
2022/10/10 09:33:51;;;;;;;5.67;1.50;;;;;;;13.80;70.74;101166.16;5055571;28;20531;-70
2022/10/10 09:36:23;;;;;;;7.23;2.07;;;;;;;13.87;69.38;101166.56;5055831;28;20441;-69
2022/10/10 09:38:53;;;;;;;5.60;1.90;;;;;;;13.81;68.96;101167.78;5055479;28;20427;-70
2022/10/10 09:41:25;;;;;;;6.13;1.93;;;;;;;13.74;69.30;101167.41;5055109;28;20481;-70
2022/10/10 09:43:56;;;;;;;4.30;1.80;;;;;;;13.70;69.78;101150.06;5052213;28;20458;-70
2022/10/10 09:46:23;;;;;;;5.23;2.00;;;;;;;13.60;69.81;101170.19;5050821;28;20462;-70
2022/10/10 09:48:53;;;;;;;6.53;2.10;;;;;;;13.59;70.59;101156.84;5055258;28;20442;-70
2022/10/10 09:51:20;;;;;;;8.00;2.20;;;;;;;13.58;71.39;101161.50;5054570;28;20465;-69
2022/10/10 09:53:48;;;;;;;12.20;2.77;;;;;;;13.62;71.85;101157.06;5055180;28;20489;-70
2022/10/10 09:56:18;;;;;;;4.20;1.70;;;;;;;13.69;72.05;101153.13;5054072;28;20496;-70
2022/10/10 09:58:46;;;;;;;10.10;2.13;;;;;;;13.77;72.58;101149.66;5054132;28;20458;-70
2022/10/10 10:01:16;;;;;;;5.33;1.97;;;;;;;13.82;71.81;101146.81;5053990;28;20478;-70
2022/10/10 10:03:43;;;;;;;8.20;1.80;;;;;;;13.85;72.59;101146.97;5055018;28;20442;-70
2022/10/10 10:06:14;;;;;;;10.80;2.17;;;;;;;13.88;74.25;101149.09;5050981;28;20454;-70
2022/10/10 10:08:41;;;;;;;5.93;2.03;;;;;;;13.98;73.41;101155.41;5054502;28;20427;-70
2022/10/10 10:11:27;;;;;;;6.03;2.37;;;;;;;14.12;73.13;101153.41;5053821;28;21009;-70
2022/10/10 10:13:56;;;;;;;7.40;1.80;;;;;;;14.16;72.48;101143.50;5054085;28;21199;-70
2022/10/10 10:16:36;;;;;;;7.63;2.13;;;;;;;14.28;70.04;101138.28;5054427;28;20462;-70
2022/10/10 10:19:05;;;;;;;6.43;1.83;;;;;;;14.37;68.81;101139.13;5054384;28;20798;-70
2022/10/10 10:21:48;;;;;;;4.23;1.77;;;;;;;14.45;67.99;101136.78;5054388;28;20470;-70
2022/10/10 10:24:21;;;;;;;4.47;1.77;;;;;;;14.51;68.48;101132.81;5054348;28;20845;-70
2022/10/10 10:26:48;;;;;;;5.53;1.97;;;;;;;14.63;67.49;101130.31;5054585;28;20562;-70
2022/10/10 10:29:28;;;;;;;4.63;1.87;;;;;;;14.73;69.99;101137.41;5054570;28;20470;-70
2022/10/10 10:32:03;;;;;;;4.93;2.00;;;;;;;14.83;68.35;101137.09;5054432;28;20458;-70
2022/10/10 10:34:46;;;;;;;4.10;1.50;;;;;;;14.96;66.53;101140.84;5054449;28;20461;-69
2022/10/10 10:37:20;;;;;;;6.70;1.80;;;;;;;14.96;65.44;101138.13;5054392;28;20423;-70
2022/10/10 10:40:07;;;;;;;8.83;2.23;;;;;;;15.06;66.03;101132.38;5054337;28;20505;-70
2022/10/10 10:42:48;;;;;;;5.73;1.83;;;;;;;15.25;66.88;101121.19;5050612;28;20493;-70
2022/10/10 10:45:18;;;;;;;6.07;2.13;;;;;;;15.36;64.00;101126.00;5054325;28;20422;-70
2022/10/10 10:47:58;;;;;;;6.10;1.67;;;;;;;15.49;66.26;101126.97;5054285;28;20445;-70
2022/10/10 10:50:35;;;;;;;4.80;1.23;;;;;;;15.65;64.30;101113.66;5054143;28;20426;-70
2022/10/10 10:53:10;;;;;;;3.70;1.33;;;;;;;15.75;65.85;101112.53;5054025;28;20536;-69
2022/10/10 10:55:44;;;;;;;5.17;1.80;;;;;;;15.95;63.22;101111.06;5053612;28;20816;-70
2022/10/10 10:58:39;;;;;;;3.83;1.23;;;;;;;16.18;63.43;101109.72;5054022;28;20415;-70
2022/10/10 11:01:10;;;;;;;3.77;1.30;;;;;;;16.37;62.26;101112.06;5053901;28;20462;-70
2022/10/10 11:03:48;;;;;;;4.30;1.73;;;;;;;16.64;61.96;101108.09;5053866;28;20489;-70
2022/10/10 11:06:36;;;;;;;3.70;1.10;;;;;;;17.34;61.35;101092.88;5053834;28;20500;-70
2022/10/10 11:09:13;;;;;;;6.30;1.63;;;;;;;18.33;56.58;101096.81;5053851;28;20444;-70
2022/10/10 11:11:59;;;;;;;4.53;1.70;;;;;;;19.41;53.08;101091.56;5053688;28;20553;-70
2022/10/10 11:14:53;;;;;;;7.27;1.97;;;;;;;20.16;50.96;101099.16;5053725;28;20466;-70
2022/10/10 11:17:23;;;;;;;4.87;1.40;;;;;;;21.03;48.07;101099.28;5053310;28;20454;-70
2022/10/10 11:19:56;;;;;;;4.70;1.30;;;;;;;20.98;47.82;101099.56;5053615;28;20472;-68
2022/10/10 11:22:26;;;;;;;4.10;1.53;;;;;;;21.61;48.44;101099.41;5052939;28;20506;-70
2022/10/10 11:25:00;;;;;;;4.73;1.70;;;;;;;21.63;46.32;101106.13;5053455;28;20811;-70
2022/10/10 11:27:33;;;;;;;4.60;1.20;;;;;;;21.78;46.91;101103.63;5053222;28;20927;-70
2022/10/10 11:30:15;;;;;;;4.27;1.23;;;;;;;22.79;45.63;101102.25;5053555;28;20476;-70
2022/10/10 11:32:50;;;;;;;9.93;1.80;;;;;;;23.18;43.28;101107.59;5053386;28;20422;-70
2022/10/10 11:35:25;;;;;;;3.40;0.93;;;;;;;23.67;43.98;101101.13;5053509;28;20445;-70
2022/10/10 11:37:59;;;;;;;6.60;1.60;;;;;;;24.14;40.47;101102.41;5053330;28;20422;-70
2022/10/10 11:40:46;;;;;;;3.60;1.03;;;;;;;23.84;41.50;101096.97;5052892;28;20966;-71